sensor_id;sensor_type;location;lat;lon;timestamp;P1;durP1;ratioP1;P2;durP2;ratioP2
12758;SDS011;20944;47.048;15.390;2023-09-19T00:00:43;3.30;;;1.80;;
12758;SDS011;20944;47.048;15.390;2023-09-19T00:03:14;5.90;;;2.38;;
12758;SDS011;20944;47.048;15.390;2023-09-19T00:05:43;2.75;;;2.03;;
12758;SDS011;20944;47.048;15.390;2023-09-19T00:08:12;3.03;;;1.92;;
12758;SDS011;20944;47.048;15.390;2023-09-19T00:10:43;7.72;;;1.90;;
12758;SDS011;20944;47.048;15.390;2023-09-19T00:13:11;3.92;;;1.80;;
12758;SDS011;20944;47.048;15.390;2023-09-19T00:15:42;1.85;;;0.93;;
12758;SDS011;20944;47.048;15.390;2023-09-19T00:18:16;3.08;;;1.63;;
12758;SDS011;20944;47.048;15.390;2023-09-19T00:20:48;1.45;;;1.08;;
12758;SDS011;20944;47.048;15.390;2023-09-19T00:23:18;1.42;;;1.30;;
12758;SDS011;20944;47.048;15.390;2023-09-19T00:25:48;5.18;;;1.58;;
12758;SDS011;20944;47.048;15.390;2023-09-19T00:28:17;2.13;;;1.00;;
12758;SDS011;20944;47.048;15.390;2023-09-19T00:30:46;2.92;;;1.23;;
12758;SDS011;20944;47.048;15.390;2023-09-19T00:33:17;2.13;;;1.33;;
12758;SDS011;20944;47.048;15.390;2023-09-19T00:35:49;2.25;;;1.33;;
12758;SDS011;20944;47.048;15.390;2023-09-19T00:38:17;2.83;;;0.98;;
12758;SDS011;20944;47.048;15.390;2023-09-19T00:40:51;2.33;;;0.93;;
12758;SDS011;20944;47.048;15.390;2023-09-19T00:43:19;2.13;;;0.90;;
12758;SDS011;20944;47.048;15.390;2023-09-19T00:45:49;1.55;;;1.00;;
12758;SDS011;20944;47.048;15.390;2023-09-19T00:48:20;4.03;;;0.77;;
12758;SDS011;20944;47.048;15.390;2023-09-19T00:50:49;2.53;;;0.90;;
12758;SDS011;20944;47.048;15.390;2023-09-19T00:53:21;3.70;;;0.98;;
12758;SDS011;20944;47.048;15.390;2023-09-19T00:55:53;7.20;;;0.95;;
12758;SDS011;20944;47.048;15.390;2023-09-19T00:58:22;1.70;;;0.90;;
12758;SDS011;20944;47.048;15.390;2023-09-19T01:00:51;0.90;;;0.80;;
12758;SDS011;20944;47.048;15.390;2023-09-19T01:03:20;0.95;;;0.90;;
12758;SDS011;20944;47.048;15.390;2023-09-19T01:05:50;1.63;;;0.90;;
12758;SDS011;20944;47.048;15.390;2023-09-19T01:08:19;1.58;;;0.82;;
12758;SDS011;20944;47.048;15.390;2023-09-19T01:10:50;1.10;;;1.00;;
12758;SDS011;20944;47.048;15.390;2023-09-19T01:13:24;2.90;;;1.30;;
12758;SDS011;20944;47.048;15.390;2023-09-19T01:15:59;0.80;;;0.80;;
12758;SDS011;20944;47.048;15.390;2023-09-19T01:18:35;0.80;;;0.80;;
12758;SDS011;20944;47.048;15.390;2023-09-19T01:21:13;3.35;;;1.17;;
12758;SDS011;20944;47.048;15.390;2023-09-19T01:24:04;1.48;;;0.85;;
12758;SDS011;20944;47.048;15.390;2023-09-19T01:26:52;2.58;;;1.10;;
12758;SDS011;20944;47.048;15.390;2023-09-19T01:29:37;2.05;;;0.77;;
12758;SDS011;20944;47.048;15.390;2023-09-19T01:32:08;1.40;;;0.93;;
12758;SDS011;20944;47.048;15.390;2023-09-19T01:34:43;2.58;;;0.88;;
12758;SDS011;20944;47.048;15.390;2023-09-19T01:37:14;2.38;;;0.70;;
12758;SDS011;20944;47.048;15.390;2023-09-19T01:39:47;0.43;;;0.43;;
12758;SDS011;20944;47.048;15.390;2023-09-19T01:42:21;1.52;;;0.60;;
12758;SDS011;20944;47.048;15.390;2023-09-19T01:44:59;1.13;;;0.60;;
12758;SDS011;20944;47.048;15.390;2023-09-19T01:47:33;4.20;;;0.60;;
12758;SDS011;20944;47.048;15.390;2023-09-19T01:50:08;0.60;;;0.60;;
12758;SDS011;20944;47.048;15.390;2023-09-19T01:52:46;0.90;;;0.60;;
12758;SDS011;20944;47.048;15.390;2023-09-19T01:55:16;2.78;;;0.98;;
12758;SDS011;20944;47.048;15.390;2023-09-19T01:57:48;0.68;;;0.68;;
12758;SDS011;20944;47.048;15.390;2023-09-19T02:00:22;3.28;;;0.77;;
12758;SDS011;20944;47.048;15.390;2023-09-19T02:02:54;1.55;;;0.88;;
12758;SDS011;20944;47.048;15.390;2023-09-19T02:05:26;0.60;;;0.60;;
12758;SDS011;20944;47.048;15.390;2023-09-19T02:07:54;0.70;;;0.70;;
12758;SDS011;20944;47.048;15.390;2023-09-19T02:10:25;0.60;;;0.60;;
12758;SDS011;20944;47.048;15.390;2023-09-19T02:12:53;2.28;;;0.70;;
12758;SDS011;20944;47.048;15.390;2023-09-19T02:15:23;0.88;;;0.60;;
12758;SDS011;20944;47.048;15.390;2023-09-19T02:17:51;0.93;;;0.60;;
12758;SDS011;20944;47.048;15.390;2023-09-19T02:20:21;1.02;;;0.63;;
12758;SDS011;20944;47.048;15.390;2023-09-19T02:22:49;4.07;;;0.68;;
12758;SDS011;20944;47.048;15.390;2023-09-19T02:25:18;1.02;;;0.70;;
12758;SDS011;20944;47.048;15.390;2023-09-19T02:27:47;0.70;;;0.70;;
12758;SDS011;20944;47.048;15.390;2023-09-19T02:30:15;2.53;;;0.88;;
12758;SDS011;20944;47.048;15.390;2023-09-19T02:32:46;0.93;;;0.80;;
12758;SDS011;20944;47.048;15.390;2023-09-19T02:35:16;2.65;;;1.00;;
12758;SDS011;20944;47.048;15.390;2023-09-19T02:37:47;2.25;;;0.88;;
12758;SDS011;20944;47.048;15.390;2023-09-19T02:40:16;1.50;;;0.88;;
12758;SDS011;20944;47.048;15.390;2023-09-19T02:42:48;1.55;;;0.88;;
12758;SDS011;20944;47.048;15.390;2023-09-19T02:45:20;0.70;;;0.70;;
12758;SDS011;20944;47.048;15.390;2023-09-19T02:47:49;1.02;;;0.65;;
12758;SDS011;20944;47.048;15.390;2023-09-19T02:50:17;0.60;;;0.60;;
12758;SDS011;20944;47.048;15.390;2023-09-19T02:52:47;0.93;;;0.70;;
12758;SDS011;20944;47.048;15.390;2023-09-19T02:55:16;2.50;;;0.60;;
12758;SDS011;20944;47.048;15.390;2023-09-19T02:57:46;1.05;;;0.77;;
12758;SDS011;20944;47.048;15.390;2023-09-19T03:00:15;1.92;;;0.57;;
12758;SDS011;20944;47.048;15.390;2023-09-19T03:02:48;2.05;;;0.70;;
12758;SDS011;20944;47.048;15.390;2023-09-19T03:05:16;1.33;;;0.60;;
12758;SDS011;20944;47.048;15.390;2023-09-19T03:07:46;0.60;;;0.50;;
12758;SDS011;20944;47.048;15.390;2023-09-19T03:10:17;0.70;;;0.57;;
12758;SDS011;20944;47.048;15.390;2023-09-19T03:12:46;1.83;;;0.65;;
12758;SDS011;20944;47.048;15.390;2023-09-19T03:15:14;1.13;;;0.47;;
12758;SDS011;20944;47.048;15.390;2023-09-19T03:17:43;0.40;;;0.40;;
12758;SDS011;20944;47.048;15.390;2023-09-19T03:20:12;0.70;;;0.55;;
12758;SDS011;20944;47.048;15.390;2023-09-19T03:22:44;0.63;;;0.40;;
12758;SDS011;20944;47.048;15.390;2023-09-19T03:25:14;1.42;;;0.80;;
12758;SDS011;20944;47.048;15.390;2023-09-19T03:27:44;0.50;;;0.43;;
12758;SDS011;20944;47.048;15.390;2023-09-19T03:30:12;0.35;;;0.35;;
12758;SDS011;20944;47.048;15.390;2023-09-19T03:32:44;2.50;;;0.50;;
12758;SDS011;20944;47.048;15.390;2023-09-19T03:35:14;0.57;;;0.50;;
12758;SDS011;20944;47.048;15.390;2023-09-19T03:37:42;0.85;;;0.50;;
12758;SDS011;20944;47.048;15.390;2023-09-19T03:40:11;2.03;;;0.50;;
12758;SDS011;20944;47.048;15.390;2023-09-19T03:42:42;0.75;;;0.55;;
12758;SDS011;20944;47.048;15.390;2023-09-19T03:45:10;0.95;;;0.60;;
12758;SDS011;20944;47.048;15.390;2023-09-19T03:47:39;2.85;;;0.80;;
12758;SDS011;20944;47.048;15.390;2023-09-19T03:50:08;1.35;;;0.68;;
12758;SDS011;20944;47.048;15.390;2023-09-19T03:52:38;0.55;;;0.50;;
12758;SDS011;20944;47.048;15.390;2023-09-19T03:55:06;1.40;;;0.50;;
12758;SDS011;20944;47.048;15.390;2023-09-19T03:57:36;1.75;;;0.60;;
12758;SDS011;20944;47.048;15.390;2023-09-19T04:00:07;1.02;;;0.70;;
12758;SDS011;20944;47.048;15.390;2023-09-19T04:02:38;1.00;;;0.60;;
12758;SDS011;20944;47.048;15.390;2023-09-19T04:05:07;0.60;;;0.60;;
12758;SDS011;20944;47.048;15.390;2023-09-19T04:07:37;1.48;;;0.70;;
12758;SDS011;20944;47.048;15.390;2023-09-19T04:10:06;0.70;;;0.57;;
12758;SDS011;20944;47.048;15.390;2023-09-19T04:12:40;0.40;;;0.40;;
12758;SDS011;20944;47.048;15.390;2023-09-19T04:15:10;0.30;;;0.30;;
12758;SDS011;20944;47.048;15.390;2023-09-19T04:17:39;1.27;;;0.45;;
12758;SDS011;20944;47.048;15.390;2023-09-19T04:20:08;0.65;;;0.60;;
12758;SDS011;20944;47.048;15.390;2023-09-19T04:22:38;0.57;;;0.47;;
12758;SDS011;20944;47.048;15.390;2023-09-19T04:25:07;0.50;;;0.50;;
12758;SDS011;20944;47.048;15.390;2023-09-19T04:27:35;1.52;;;0.70;;
12758;SDS011;20944;47.048;15.390;2023-09-19T04:30:05;1.33;;;0.90;;
12758;SDS011;20944;47.048;15.390;2023-09-19T04:32:38;1.17;;;0.45;;
12758;SDS011;20944;47.048;15.390;2023-09-19T04:35:07;0.73;;;0.52;;
12758;SDS011;20944;47.048;15.390;2023-09-19T04:37:37;1.27;;;0.55;;
12758;SDS011;20944;47.048;15.390;2023-09-19T04:40:07;0.40;;;0.40;;
12758;SDS011;20944;47.048;15.390;2023-09-19T04:42:40;1.20;;;0.47;;
12758;SDS011;20944;47.048;15.390;2023-09-19T04:45:09;0.47;;;0.40;;
12758;SDS011;20944;47.048;15.390;2023-09-19T04:47:39;1.45;;;0.30;;
12758;SDS011;20944;47.048;15.390;2023-09-19T04:50:10;2.38;;;0.55;;
12758;SDS011;20944;47.048;15.390;2023-09-19T04:52:40;3.13;;;0.50;;
12758;SDS011;20944;47.048;15.390;2023-09-19T04:55:11;0.85;;;0.50;;
12758;SDS011;20944;47.048;15.390;2023-09-19T04:57:43;0.63;;;0.38;;
12758;SDS011;20944;47.048;15.390;2023-09-19T05:00:13;0.60;;;0.50;;
12758;SDS011;20944;47.048;15.390;2023-09-19T05:02:45;0.60;;;0.32;;
12758;SDS011;20944;47.048;15.390;2023-09-19T05:05:14;1.23;;;0.50;;
12758;SDS011;20944;47.048;15.390;2023-09-19T05:07:43;0.55;;;0.50;;
12758;SDS011;20944;47.048;15.390;2023-09-19T05:10:12;0.75;;;0.40;;
12758;SDS011;20944;47.048;15.390;2023-09-19T05:12:41;0.82;;;0.50;;
12758;SDS011;20944;47.048;15.390;2023-09-19T05:15:11;0.60;;;0.40;;
12758;SDS011;20944;47.048;15.390;2023-09-19T05:17:41;0.65;;;0.40;;
12758;SDS011;20944;47.048;15.390;2023-09-19T05:20:11;0.60;;;0.38;;
12758;SDS011;20944;47.048;15.390;2023-09-19T05:22:41;0.50;;;0.50;;
12758;SDS011;20944;47.048;15.390;2023-09-19T05:25:11;0.60;;;0.40;;
12758;SDS011;20944;47.048;15.390;2023-09-19T05:27:42;0.90;;;0.50;;
12758;SDS011;20944;47.048;15.390;2023-09-19T05:30:11;1.90;;;0.55;;
12758;SDS011;20944;47.048;15.390;2023-09-19T05:32:42;3.08;;;0.40;;
12758;SDS011;20944;47.048;15.390;2023-09-19T05:35:12;0.95;;;0.50;;
12758;SDS011;20944;47.048;15.390;2023-09-19T05:37:40;0.85;;;0.80;;
12758;SDS011;20944;47.048;15.390;2023-09-19T05:40:09;2.97;;;0.65;;
12758;SDS011;20944;47.048;15.390;2023-09-19T05:42:38;2.25;;;0.43;;
12758;SDS011;20944;47.048;15.390;2023-09-19T05:45:08;0.30;;;0.20;;
12758;SDS011;20944;47.048;15.390;2023-09-19T05:47:38;0.30;;;0.25;;
12758;SDS011;20944;47.048;15.390;2023-09-19T05:50:13;1.10;;;0.30;;
12758;SDS011;20944;47.048;15.390;2023-09-19T05:52:43;0.50;;;0.20;;
12758;SDS011;20944;47.048;15.390;2023-09-19T05:55:12;1.27;;;0.40;;
12758;SDS011;20944;47.048;15.390;2023-09-19T05:57:41;0.98;;;0.38;;
12758;SDS011;20944;47.048;15.390;2023-09-19T06:00:10;0.80;;;0.40;;
12758;SDS011;20944;47.048;15.390;2023-09-19T06:02:40;0.30;;;0.30;;
12758;SDS011;20944;47.048;15.390;2023-09-19T06:05:11;0.40;;;0.40;;
12758;SDS011;20944;47.048;15.390;2023-09-19T06:07:41;1.25;;;0.40;;
12758;SDS011;20944;47.048;15.390;2023-09-19T06:10:09;0.73;;;0.50;;
12758;SDS011;20944;47.048;15.390;2023-09-19T06:12:38;1.05;;;0.52;;
12758;SDS011;20944;47.048;15.390;2023-09-19T06:15:06;1.67;;;0.40;;
12758;SDS011;20944;47.048;15.390;2023-09-19T06:17:39;2.35;;;0.50;;
12758;SDS011;20944;47.048;15.390;2023-09-19T06:20:07;5.47;;;0.50;;
12758;SDS011;20944;47.048;15.390;2023-09-19T06:22:40;0.32;;;0.30;;
12758;SDS011;20944;47.048;15.390;2023-09-19T06:25:09;0.50;;;0.50;;
12758;SDS011;20944;47.048;15.390;2023-09-19T06:27:42;0.88;;;0.38;;
12758;SDS011;20944;47.048;15.390;2023-09-19T06:30:11;0.30;;;0.30;;
12758;SDS011;20944;47.048;15.390;2023-09-19T06:32:39;0.30;;;0.30;;
12758;SDS011;20944;47.048;15.390;2023-09-19T06:35:11;1.25;;;0.43;;
12758;SDS011;20944;47.048;15.390;2023-09-19T06:37:42;0.65;;;0.45;;
12758;SDS011;20944;47.048;15.390;2023-09-19T06:40:11;1.02;;;0.50;;
12758;SDS011;20944;47.048;15.390;2023-09-19T06:42:41;0.57;;;0.50;;
12758;SDS011;20944;47.048;15.390;2023-09-19T06:45:11;0.50;;;0.50;;
12758;SDS011;20944;47.048;15.390;2023-09-19T06:47:40;0.85;;;0.35;;
12758;SDS011;20944;47.048;15.390;2023-09-19T06:50:09;2.20;;;0.50;;
12758;SDS011;20944;47.048;15.390;2023-09-19T06:52:41;0.30;;;0.30;;
12758;SDS011;20944;47.048;15.390;2023-09-19T06:55:10;0.63;;;0.40;;
12758;SDS011;20944;47.048;15.390;2023-09-19T06:57:39;0.40;;;0.40;;
12758;SDS011;20944;47.048;15.390;2023-09-19T07:00:10;0.60;;;0.47;;
12758;SDS011;20944;47.048;15.390;2023-09-19T07:02:45;1.65;;;0.40;;
12758;SDS011;20944;47.048;15.390;2023-09-19T07:05:22;0.30;;;0.30;;
12758;SDS011;20944;47.048;15.390;2023-09-19T07:07:51;1.58;;;0.30;;
12758;SDS011;20944;47.048;15.390;2023-09-19T07:10:21;1.27;;;0.38;;
12758;SDS011;20944;47.048;15.390;2023-09-19T07:12:54;0.32;;;0.32;;
12758;SDS011;20944;47.048;15.390;2023-09-19T07:15:23;0.80;;;0.50;;
12758;SDS011;20944;47.048;15.390;2023-09-19T07:17:52;0.40;;;0.40;;
12758;SDS011;20944;47.048;15.390;2023-09-19T07:20:23;1.85;;;0.50;;
12758;SDS011;20944;47.048;15.390;2023-09-19T07:22:55;1.85;;;0.40;;
12758;SDS011;20944;47.048;15.390;2023-09-19T07:25:26;0.63;;;0.40;;
12758;SDS011;20944;47.048;15.390;2023-09-19T07:27:55;0.45;;;0.40;;
12758;SDS011;20944;47.048;15.390;2023-09-19T07:30:27;1.38;;;0.55;;
12758;SDS011;20944;47.048;15.390;2023-09-19T07:32:56;0.47;;;0.47;;
12758;SDS011;20944;47.048;15.390;2023-09-19T07:35:25;2.58;;;0.35;;
12758;SDS011;20944;47.048;15.390;2023-09-19T07:37:55;0.50;;;0.20;;
12758;SDS011;20944;47.048;15.390;2023-09-19T07:40:24;0.50;;;0.50;;
12758;SDS011;20944;47.048;15.390;2023-09-19T07:42:53;0.50;;;0.50;;
12758;SDS011;20944;47.048;15.390;2023-09-19T07:45:22;0.52;;;0.45;;
12758;SDS011;20944;47.048;15.390;2023-09-19T07:47:51;0.60;;;0.60;;
12758;SDS011;20944;47.048;15.390;2023-09-19T07:50:20;1.70;;;0.60;;
12758;SDS011;20944;47.048;15.390;2023-09-19T07:52:49;0.75;;;0.57;;
12758;SDS011;20944;47.048;15.390;2023-09-19T07:55:21;0.82;;;0.50;;
12758;SDS011;20944;47.048;15.390;2023-09-19T07:57:50;0.40;;;0.40;;
12758;SDS011;20944;47.048;15.390;2023-09-19T08:00:19;0.50;;;0.50;;
12758;SDS011;20944;47.048;15.390;2023-09-19T08:02:47;0.65;;;0.45;;
12758;SDS011;20944;47.048;15.390;2023-09-19T08:05:26;0.50;;;0.40;;
12758;SDS011;20944;47.048;15.390;2023-09-19T08:07:55;0.82;;;0.47;;
12758;SDS011;20944;47.048;15.390;2023-09-19T08:10:27;0.50;;;0.50;;
12758;SDS011;20944;47.048;15.390;2023-09-19T08:13:02;0.93;;;0.50;;
12758;SDS011;20944;47.048;15.390;2023-09-19T08:15:31;1.27;;;0.57;;
12758;SDS011;20944;47.048;15.390;2023-09-19T08:17:59;0.45;;;0.40;;
12758;SDS011;20944;47.048;15.390;2023-09-19T08:20:28;0.95;;;0.60;;
12758;SDS011;20944;47.048;15.390;2023-09-19T08:22:57;0.50;;;0.50;;
12758;SDS011;20944;47.048;15.390;2023-09-19T08:25:27;0.52;;;0.47;;
12758;SDS011;20944;47.048;15.390;2023-09-19T08:27:56;2.05;;;0.57;;
12758;SDS011;20944;47.048;15.390;2023-09-19T08:30:26;1.10;;;0.57;;
12758;SDS011;20944;47.048;15.390;2023-09-19T08:32:57;0.65;;;0.65;;
12758;SDS011;20944;47.048;15.390;2023-09-19T08:35:26;0.98;;;0.70;;
12758;SDS011;20944;47.048;15.390;2023-09-19T08:37:54;0.68;;;0.60;;
12758;SDS011;20944;47.048;15.390;2023-09-19T08:40:23;0.88;;;0.63;;
12758;SDS011;20944;47.048;15.390;2023-09-19T08:42:58;1.13;;;0.65;;
12758;SDS011;20944;47.048;15.390;2023-09-19T08:45:27;0.88;;;0.60;;
12758;SDS011;20944;47.048;15.390;2023-09-19T08:47:57;0.70;;;0.65;;
12758;SDS011;20944;47.048;15.390;2023-09-19T08:50:36;1.40;;;0.95;;
12758;SDS011;20944;47.048;15.390;2023-09-19T08:53:11;2.33;;;0.90;;
12758;SDS011;20944;47.048;15.390;2023-09-19T08:55:43;0.85;;;0.82;;
12758;SDS011;20944;47.048;15.390;2023-09-19T08:58:16;1.23;;;0.70;;
12758;SDS011;20944;47.048;15.390;2023-09-19T09:00:52;0.70;;;0.60;;
12758;SDS011;20944;47.048;15.390;2023-09-19T09:03:22;2.30;;;0.70;;
12758;SDS011;20944;47.048;15.390;2023-09-19T09:05:51;0.80;;;0.70;;
12758;SDS011;20944;47.048;15.390;2023-09-19T09:08:20;1.23;;;0.50;;
12758;SDS011;20944;47.048;15.390;2023-09-19T09:10:49;0.57;;;0.57;;
12758;SDS011;20944;47.048;15.390;2023-09-19T09:13:20;0.82;;;0.50;;
12758;SDS011;20944;47.048;15.390;2023-09-19T09:15:51;1.33;;;0.75;;
12758;SDS011;20944;47.048;15.390;2023-09-19T09:18:21;0.68;;;0.68;;
12758;SDS011;20944;47.048;15.390;2023-09-19T09:20:50;0.75;;;0.40;;
12758;SDS011;20944;47.048;15.390;2023-09-19T09:23:19;0.73;;;0.50;;
12758;SDS011;20944;47.048;15.390;2023-09-19T09:25:48;0.90;;;0.70;;
12758;SDS011;20944;47.048;15.390;2023-09-19T09:28:23;0.93;;;0.70;;
12758;SDS011;20944;47.048;15.390;2023-09-19T09:30:53;0.63;;;0.63;;
12758;SDS011;20944;47.048;15.390;2023-09-19T09:33:22;1.20;;;0.77;;
12758;SDS011;20944;47.048;15.390;2023-09-19T09:35:52;1.10;;;0.60;;
12758;SDS011;20944;47.048;15.390;2023-09-19T09:38:24;0.77;;;0.70;;
12758;SDS011;20944;47.048;15.390;2023-09-19T09:40:54;1.27;;;0.90;;
12758;SDS011;20944;47.048;15.390;2023-09-19T09:43:30;1.05;;;0.90;;
12758;SDS011;20944;47.048;15.390;2023-09-19T09:46:13;0.47;;;0.47;;
12758;SDS011;20944;47.048;15.390;2023-09-19T09:49:11;1.50;;;0.75;;
12758;SDS011;20944;47.048;15.390;2023-09-19T09:51:45;0.70;;;0.70;;
12758;SDS011;20944;47.048;15.390;2023-09-19T09:54:24;1.15;;;0.90;;
12758;SDS011;20944;47.048;15.390;2023-09-19T09:57:03;2.15;;;0.70;;
12758;SDS011;20944;47.048;15.390;2023-09-19T09:59:49;2.97;;;0.77;;
12758;SDS011;20944;47.048;15.390;2023-09-19T10:02:20;0.93;;;0.75;;
12758;SDS011;20944;47.048;15.390;2023-09-19T10:05:00;0.52;;;0.52;;
12758;SDS011;20944;47.048;15.390;2023-09-19T10:07:48;0.85;;;0.85;;
12758;SDS011;20944;47.048;15.390;2023-09-19T10:13:11;1.08;;;0.98;;
12758;SDS011;20944;47.048;15.390;2023-09-19T10:15:44;0.70;;;0.70;;
12758;SDS011;20944;47.048;15.390;2023-09-19T10:18:37;3.08;;;0.90;;
12758;SDS011;20944;47.048;15.390;2023-09-19T10:21:08;1.30;;;0.85;;
12758;SDS011;20944;47.048;15.390;2023-09-19T10:23:38;1.35;;;0.70;;
12758;SDS011;20944;47.048;15.390;2023-09-19T10:26:11;2.85;;;0.50;;
12758;SDS011;20944;47.048;15.390;2023-09-19T10:28:45;0.88;;;0.70;;
12758;SDS011;20944;47.048;15.390;2023-09-19T10:31:19;0.45;;;0.45;;
12758;SDS011;20944;47.048;15.390;2023-09-19T10:33:50;2.97;;;0.70;;
12758;SDS011;20944;47.048;15.390;2023-09-19T10:36:21;0.60;;;0.50;;
12758;SDS011;20944;47.048;15.390;2023-09-19T10:38:53;0.55;;;0.50;;
12758;SDS011;20944;47.048;15.390;2023-09-19T10:41:24;0.50;;;0.50;;
12758;SDS011;20944;47.048;15.390;2023-09-19T10:43:53;0.55;;;0.55;;
12758;SDS011;20944;47.048;15.390;2023-09-19T10:46:23;1.67;;;0.60;;
12758;SDS011;20944;47.048;15.390;2023-09-19T10:48:52;0.63;;;0.50;;
12758;SDS011;20944;47.048;15.390;2023-09-19T10:51:22;1.20;;;0.50;;
12758;SDS011;20944;47.048;15.390;2023-09-19T10:53:55;0.65;;;0.60;;
12758;SDS011;20944;47.048;15.390;2023-09-19T10:56:32;0.93;;;0.52;;
12758;SDS011;20944;47.048;15.390;2023-09-19T10:59:07;0.40;;;0.40;;
12758;SDS011;20944;47.048;15.390;2023-09-19T11:01:43;0.50;;;0.50;;
12758;SDS011;20944;47.048;15.390;2023-09-19T11:04:20;1.95;;;0.30;;
12758;SDS011;20944;47.048;15.390;2023-09-19T11:07:00;0.43;;;0.43;;
12758;SDS011;20944;47.048;15.390;2023-09-19T11:09:43;0.47;;;0.40;;
12758;SDS011;20944;47.048;15.390;2023-09-19T11:24:27;0.50;;;0.50;;
12758;SDS011;20944;47.048;15.390;2023-09-19T11:27:13;1.08;;;0.63;;
12758;SDS011;20944;47.048;15.390;2023-09-19T11:29:44;0.50;;;0.50;;
12758;SDS011;20944;47.048;15.390;2023-09-19T11:32:14;1.70;;;0.45;;
12758;SDS011;20944;47.048;15.390;2023-09-19T11:34:46;0.60;;;0.40;;
12758;SDS011;20944;47.048;15.390;2023-09-19T11:40:37;0.50;;;0.47;;
12758;SDS011;20944;47.048;15.390;2023-09-19T11:46:07;0.60;;;0.60;;
12758;SDS011;20944;47.048;15.390;2023-09-19T11:48:38;0.50;;;0.50;;
12758;SDS011;20944;47.048;15.390;2023-09-19T11:51:13;1.05;;;0.40;;
12758;SDS011;20944;47.048;15.390;2023-09-19T11:53:54;0.95;;;0.40;;
12758;SDS011;20944;47.048;15.390;2023-09-19T11:56:23;0.50;;;0.50;;
12758;SDS011;20944;47.048;15.390;2023-09-19T11:58:54;0.85;;;0.65;;
12758;SDS011;20944;47.048;15.390;2023-09-19T12:01:25;0.57;;;0.50;;
12758;SDS011;20944;47.048;15.390;2023-09-19T12:03:59;0.50;;;0.50;;
12758;SDS011;20944;47.048;15.390;2023-09-19T12:06:33;1.23;;;0.55;;
12758;SDS011;20944;47.048;15.390;2023-09-19T12:09:02;0.50;;;0.50;;
12758;SDS011;20944;47.048;15.390;2023-09-19T12:11:33;0.68;;;0.63;;
12758;SDS011;20944;47.048;15.390;2023-09-19T12:14:11;0.55;;;0.55;;
12758;SDS011;20944;47.048;15.390;2023-09-19T12:16:40;0.60;;;0.60;;
12758;SDS011;20944;47.048;15.390;2023-09-19T12:19:22;0.40;;;0.40;;
12758;SDS011;20944;47.048;15.390;2023-09-19T12:21:55;0.68;;;0.65;;
12758;SDS011;20944;47.048;15.390;2023-09-19T12:24:26;0.60;;;0.50;;
12758;SDS011;20944;47.048;15.390;2023-09-19T12:27:00;0.73;;;0.50;;
12758;SDS011;20944;47.048;15.390;2023-09-19T12:29:31;0.55;;;0.50;;
12758;SDS011;20944;47.048;15.390;2023-09-19T12:32:09;0.70;;;0.68;;
12758;SDS011;20944;47.048;15.390;2023-09-19T12:34:38;3.60;;;0.77;;
12758;SDS011;20944;47.048;15.390;2023-09-19T12:37:11;1.13;;;0.60;;
12758;SDS011;20944;47.048;15.390;2023-09-19T12:39:42;0.50;;;0.50;;
12758;SDS011;20944;47.048;15.390;2023-09-19T12:42:15;0.43;;;0.43;;
12758;SDS011;20944;47.048;15.390;2023-09-19T12:44:46;1.80;;;0.60;;
12758;SDS011;20944;47.048;15.390;2023-09-19T12:47:18;0.57;;;0.57;;
12758;SDS011;20944;47.048;15.390;2023-09-19T12:50:05;0.63;;;0.63;;
12758;SDS011;20944;47.048;15.390;2023-09-19T12:52:43;0.95;;;0.70;;
12758;SDS011;20944;47.048;15.390;2023-09-19T12:55:21;0.47;;;0.47;;
12758;SDS011;20944;47.048;15.390;2023-09-19T12:57:59;0.63;;;0.63;;
12758;SDS011;20944;47.048;15.390;2023-09-19T13:00:36;0.47;;;0.47;;
12758;SDS011;20944;47.048;15.390;2023-09-19T13:03:12;1.08;;;0.60;;
12758;SDS011;20944;47.048;15.390;2023-09-19T13:05:49;2.03;;;0.60;;
12758;SDS011;20944;47.048;15.390;2023-09-19T13:08:23;0.90;;;0.50;;
12758;SDS011;20944;47.048;15.390;2023-09-19T13:11:08;1.50;;;0.80;;
12758;SDS011;20944;47.048;15.390;2023-09-19T13:13:40;1.88;;;0.73;;
12758;SDS011;20944;47.048;15.390;2023-09-19T13:16:15;0.50;;;0.50;;
12758;SDS011;20944;47.048;15.390;2023-09-19T13:18:49;0.55;;;0.55;;
12758;SDS011;20944;47.048;15.390;2023-09-19T13:21:27;0.50;;;0.50;;
12758;SDS011;20944;47.048;15.390;2023-09-19T13:26:47;0.77;;;0.73;;
12758;SDS011;20944;47.048;15.390;2023-09-19T13:29:16;0.57;;;0.57;;
12758;SDS011;20944;47.048;15.390;2023-09-19T13:31:45;0.45;;;0.43;;
12758;SDS011;20944;47.048;15.390;2023-09-19T13:34:15;0.60;;;0.60;;
12758;SDS011;20944;47.048;15.390;2023-09-19T13:36:44;2.75;;;0.52;;
12758;SDS011;20944;47.048;15.390;2023-09-19T13:39:15;0.85;;;0.50;;
12758;SDS011;20944;47.048;15.390;2023-09-19T13:41:47;0.60;;;0.60;;
12758;SDS011;20944;47.048;15.390;2023-09-19T13:44:16;0.50;;;0.50;;
12758;SDS011;20944;47.048;15.390;2023-09-19T13:46:44;0.50;;;0.50;;
12758;SDS011;20944;47.048;15.390;2023-09-19T13:49:14;0.50;;;0.50;;
12758;SDS011;20944;47.048;15.390;2023-09-19T13:51:42;0.40;;;0.40;;
12758;SDS011;20944;47.048;15.390;2023-09-19T13:54:11;0.60;;;0.50;;
12758;SDS011;20944;47.048;15.390;2023-09-19T13:56:41;0.60;;;0.60;;
12758;SDS011;20944;47.048;15.390;2023-09-19T13:59:11;0.60;;;0.60;;
12758;SDS011;20944;47.048;15.390;2023-09-19T14:01:39;1.75;;;0.50;;
12758;SDS011;20944;47.048;15.390;2023-09-19T14:04:08;1.92;;;0.63;;
12758;SDS011;20944;47.048;15.390;2023-09-19T14:06:41;0.80;;;0.50;;
12758;SDS011;20944;47.048;15.390;2023-09-19T14:09:09;0.55;;;0.50;;
12758;SDS011;20944;47.048;15.390;2023-09-19T14:11:38;0.50;;;0.50;;
12758;SDS011;20944;47.048;15.390;2023-09-19T14:14:08;0.65;;;0.50;;
12758;SDS011;20944;47.048;15.390;2023-09-19T14:16:38;1.00;;;0.60;;
12758;SDS011;20944;47.048;15.390;2023-09-19T14:19:08;0.73;;;0.73;;
12758;SDS011;20944;47.048;15.390;2023-09-19T14:21:37;0.60;;;0.60;;
12758;SDS011;20944;47.048;15.390;2023-09-19T14:24:06;0.93;;;0.50;;
12758;SDS011;20944;47.048;15.390;2023-09-19T14:26:36;0.50;;;0.50;;
12758;SDS011;20944;47.048;15.390;2023-09-19T14:29:04;0.60;;;0.60;;
12758;SDS011;20944;47.048;15.390;2023-09-19T14:31:36;0.90;;;0.60;;
12758;SDS011;20944;47.048;15.390;2023-09-19T14:34:05;0.63;;;0.60;;
12758;SDS011;20944;47.048;15.390;2023-09-19T14:36:36;0.73;;;0.68;;
12758;SDS011;20944;47.048;15.390;2023-09-19T14:39:05;0.63;;;0.60;;
12758;SDS011;20944;47.048;15.390;2023-09-19T14:41:34;0.77;;;0.60;;
12758;SDS011;20944;47.048;15.390;2023-09-19T14:44:03;0.70;;;0.70;;
12758;SDS011;20944;47.048;15.390;2023-09-19T14:46:32;0.70;;;0.70;;
12758;SDS011;20944;47.048;15.390;2023-09-19T14:49:02;0.57;;;0.52;;
12758;SDS011;20944;47.048;15.390;2023-09-19T14:51:31;0.70;;;0.70;;
12758;SDS011;20944;47.048;15.390;2023-09-19T14:53:59;2.95;;;0.70;;
12758;SDS011;20944;47.048;15.390;2023-09-19T14:56:29;0.60;;;0.60;;
12758;SDS011;20944;47.048;15.390;2023-09-19T14:58:57;0.82;;;0.80;;
12758;SDS011;20944;47.048;15.390;2023-09-19T15:01:26;0.80;;;0.80;;
12758;SDS011;20944;47.048;15.390;2023-09-19T15:03:54;3.30;;;0.52;;
12758;SDS011;20944;47.048;15.390;2023-09-19T15:06:24;0.60;;;0.60;;
12758;SDS011;20944;47.048;15.390;2023-09-19T15:08:53;0.70;;;0.70;;
12758;SDS011;20944;47.048;15.390;2023-09-19T15:11:21;0.57;;;0.57;;
12758;SDS011;20944;47.048;15.390;2023-09-19T15:13:51;0.80;;;0.80;;
12758;SDS011;20944;47.048;15.390;2023-09-19T15:16:20;0.65;;;0.60;;
12758;SDS011;20944;47.048;15.390;2023-09-19T15:18:49;3.50;;;0.85;;
12758;SDS011;20944;47.048;15.390;2023-09-19T15:21:18;0.70;;;0.60;;